sensor_id;sensor_type;location;lat;lon;timestamp;temperature;humidity
25640;DHT22;13497;48.322;16.204;2022-09-14T00:01:05;16.50;99.90
25640;DHT22;13497;48.322;16.204;2022-09-14T00:03:31;16.50;99.90
25640;DHT22;13497;48.322;16.204;2022-09-14T00:06:02;16.60;99.90
25640;DHT22;13497;48.322;16.204;2022-09-14T00:08:28;16.60;99.90
25640;DHT22;13497;48.322;16.204;2022-09-14T00:10:54;16.60;99.90
25640;DHT22;13497;48.322;16.204;2022-09-14T00:13:19;16.60;99.90
25640;DHT22;13497;48.322;16.204;2022-09-14T00:15:45;16.70;99.90
25640;DHT22;13497;48.322;16.204;2022-09-14T00:18:11;16.60;99.90
25640;DHT22;13497;48.322;16.204;2022-09-14T00:20:37;16.60;99.90
25640;DHT22;13497;48.322;16.204;2022-09-14T00:23:03;16.50;99.90
25640;DHT22;13497;48.322;16.204;2022-09-14T00:25:29;16.60;99.90
25640;DHT22;13497;48.322;16.204;2022-09-14T00:27:56;16.60;99.90
25640;DHT22;13497;48.322;16.204;2022-09-14T00:30:22;16.50;99.90
25640;DHT22;13497;48.322;16.204;2022-09-14T00:32:48;16.50;99.90
25640;DHT22;13497;48.322;16.204;2022-09-14T00:35:14;16.50;99.90
25640;DHT22;13497;48.322;16.204;2022-09-14T00:37:40;16.40;99.90
25640;DHT22;13497;48.322;16.204;2022-09-14T00:40:06;16.30;99.90
25640;DHT22;13497;48.322;16.204;2022-09-14T00:42:32;16.30;99.90
25640;DHT22;13497;48.322;16.204;2022-09-14T00:45:11;16.30;99.90
25640;DHT22;13497;48.322;16.204;2022-09-14T00:47:37;16.20;99.90
25640;DHT22;13497;48.322;16.204;2022-09-14T00:50:04;16.20;99.90
25640;DHT22;13497;48.322;16.204;2022-09-14T00:52:31;16.10;99.90
25640;DHT22;13497;48.322;16.204;2022-09-14T00:54:59;16.10;99.90
25640;DHT22;13497;48.322;16.204;2022-09-14T00:57:28;16.00;99.90
25640;DHT22;13497;48.322;16.204;2022-09-14T00:59:54;16.00;99.90
25640;DHT22;13497;48.322;16.204;2022-09-14T01:02:22;16.10;99.90
25640;DHT22;13497;48.322;16.204;2022-09-14T01:04:49;16.10;99.90
25640;DHT22;13497;48.322;16.204;2022-09-14T01:07:24;16.10;99.90
25640;DHT22;13497;48.322;16.204;2022-09-14T01:15:40;16.10;99.90
25640;DHT22;13497;48.322;16.204;2022-09-14T01:18:22;16.20;99.90
25640;DHT22;13497;48.322;16.204;2022-09-14T01:34:15;16.20;99.90
25640;DHT22;13497;48.322;16.204;2022-09-14T01:36:47;16.30;99.90
25640;DHT22;13497;48.322;16.204;2022-09-14T01:39:14;16.40;99.90
25640;DHT22;13497;48.322;16.204;2022-09-14T01:41:41;16.30;99.90
25640;DHT22;13497;48.322;16.204;2022-09-14T01:46:39;16.40;99.90
25640;DHT22;13497;48.322;16.204;2022-09-14T01:52:39;16.50;99.90
25640;DHT22;13497;48.322;16.204;2022-09-14T01:54:47;16.50;99.90
25640;DHT22;13497;48.322;16.204;2022-09-14T02:00:04;16.50;99.90
25640;DHT22;13497;48.322;16.204;2022-09-14T02:02:36;16.50;99.90
25640;DHT22;13497;48.322;16.204;2022-09-14T02:05:12;16.50;99.90
25640;DHT22;13497;48.322;16.204;2022-09-14T02:07:40;16.60;99.90
25640;DHT22;13497;48.322;16.204;2022-09-14T02:10:09;16.60;99.90
25640;DHT22;13497;48.322;16.204;2022-09-14T02:12:36;16.60;99.90
25640;DHT22;13497;48.322;16.204;2022-09-14T02:15:03;16.50;99.90
25640;DHT22;13497;48.322;16.204;2022-09-14T02:17:30;16.50;99.90
25640;DHT22;13497;48.322;16.204;2022-09-14T02:19:57;16.40;99.90
25640;DHT22;13497;48.322;16.204;2022-09-14T02:22:28;16.40;99.90
25640;DHT22;13497;48.322;16.204;2022-09-14T02:24:54;16.30;99.90
25640;DHT22;13497;48.322;16.204;2022-09-14T02:27:20;16.40;99.90
25640;DHT22;13497;48.322;16.204;2022-09-14T02:29:46;16.40;99.90
25640;DHT22;13497;48.322;16.204;2022-09-14T02:34:59;16.40;99.90
25640;DHT22;13497;48.322;16.204;2022-09-14T02:37:49;16.40;99.90
25640;DHT22;13497;48.322;16.204;2022-09-14T02:41:02;16.40;99.90
25640;DHT22;13497;48.322;16.204;2022-09-14T02:43:30;16.40;99.90
25640;DHT22;13497;48.322;16.204;2022-09-14T02:48:33;16.30;99.90
25640;DHT22;13497;48.322;16.204;2022-09-14T02:51:27;16.30;99.90
25640;DHT22;13497;48.322;16.204;2022-09-14T02:54:14;16.20;99.90
25640;DHT22;13497;48.322;16.204;2022-09-14T02:56:41;16.10;99.90
25640;DHT22;13497;48.322;16.204;2022-09-14T02:59:07;16.10;99.90
25640;DHT22;13497;48.322;16.204;2022-09-14T03:01:32;16.10;99.90
25640;DHT22;13497;48.322;16.204;2022-09-14T03:03:58;16.20;99.90
25640;DHT22;13497;48.322;16.204;2022-09-14T03:06:24;16.20;99.90
25640;DHT22;13497;48.322;16.204;2022-09-14T03:08:49;16.20;99.90
25640;DHT22;13497;48.322;16.204;2022-09-14T03:11:15;16.10;99.90
25640;DHT22;13497;48.322;16.204;2022-09-14T03:13:41;16.00;99.90
25640;DHT22;13497;48.322;16.204;2022-09-14T03:16:09;16.00;99.90
25640;DHT22;13497;48.322;16.204;2022-09-14T03:18:36;15.90;99.90
25640;DHT22;13497;48.322;16.204;2022-09-14T03:21:06;15.80;99.90
25640;DHT22;13497;48.322;16.204;2022-09-14T03:23:51;15.80;99.90
25640;DHT22;13497;48.322;16.204;2022-09-14T03:26:21;15.80;99.90
25640;DHT22;13497;48.322;16.204;2022-09-14T03:28:51;15.80;99.90
25640;DHT22;13497;48.322;16.204;2022-09-14T03:31:17;15.80;99.90
25640;DHT22;13497;48.322;16.204;2022-09-14T03:33:43;15.80;99.90
25640;DHT22;13497;48.322;16.204;2022-09-14T03:36:17;15.90;99.90
25640;DHT22;13497;48.322;16.204;2022-09-14T03:38:51;15.90;99.90
25640;DHT22;13497;48.322;16.204;2022-09-14T03:41:17;15.90;99.90
25640;DHT22;13497;48.322;16.204;2022-09-14T03:43:43;15.90;99.90
25640;DHT22;13497;48.322;16.204;2022-09-14T03:46:13;15.90;99.90
25640;DHT22;13497;48.322;16.204;2022-09-14T03:48:39;16.10;99.90
25640;DHT22;13497;48.322;16.204;2022-09-14T03:51:07;16.10;99.90
25640;DHT22;13497;48.322;16.204;2022-09-14T03:53:33;16.10;99.90
25640;DHT22;13497;48.322;16.204;2022-09-14T03:55:59;16.00;99.90
25640;DHT22;13497;48.322;16.204;2022-09-14T03:58:25;16.00;99.90
25640;DHT22;13497;48.322;16.204;2022-09-14T04:00:50;16.10;99.90
25640;DHT22;13497;48.322;16.204;2022-09-14T04:03:17;16.10;99.90
25640;DHT22;13497;48.322;16.204;2022-09-14T04:05:42;16.20;99.90
25640;DHT22;13497;48.322;16.204;2022-09-14T04:08:10;16.20;99.90
25640;DHT22;13497;48.322;16.204;2022-09-14T04:10:38;16.20;99.90
25640;DHT22;13497;48.322;16.204;2022-09-14T04:13:04;16.10;99.90
25640;DHT22;13497;48.322;16.204;2022-09-14T04:15:29;16.10;99.90
25640;DHT22;13497;48.322;16.204;2022-09-14T04:17:55;16.20;99.90
25640;DHT22;13497;48.322;16.204;2022-09-14T04:20:20;16.20;99.90
25640;DHT22;13497;48.322;16.204;2022-09-14T04:22:46;16.20;99.90
25640;DHT22;13497;48.322;16.204;2022-09-14T04:25:12;16.20;99.90
25640;DHT22;13497;48.322;16.204;2022-09-14T04:27:38;16.30;99.90
25640;DHT22;13497;48.322;16.204;2022-09-14T04:30:04;16.40;99.90
25640;DHT22;13497;48.322;16.204;2022-09-14T04:32:30;16.40;99.90
25640;DHT22;13497;48.322;16.204;2022-09-14T04:34:56;16.40;99.90
25640;DHT22;13497;48.322;16.204;2022-09-14T04:37:22;16.30;99.90
25640;DHT22;13497;48.322;16.204;2022-09-14T04:39:48;16.30;99.90
25640;DHT22;13497;48.322;16.204;2022-09-14T04:42:14;16.40;99.90
25640;DHT22;13497;48.322;16.204;2022-09-14T04:44:40;16.40;99.90
25640;DHT22;13497;48.322;16.204;2022-09-14T04:47:06;16.30;99.90
25640;DHT22;13497;48.322;16.204;2022-09-14T04:49:31;16.20;99.90
25640;DHT22;13497;48.322;16.204;2022-09-14T04:51:57;16.30;99.90
25640;DHT22;13497;48.322;16.204;2022-09-14T04:54:22;16.40;99.90
25640;DHT22;13497;48.322;16.204;2022-09-14T04:56:48;16.40;99.90
25640;DHT22;13497;48.322;16.204;2022-09-14T04:59:14;16.40;99.90
25640;DHT22;13497;48.322;16.204;2022-09-14T05:01:43;16.50;99.90
25640;DHT22;13497;48.322;16.204;2022-09-14T05:04:11;16.50;99.90
25640;DHT22;13497;48.322;16.204;2022-09-14T05:06:38;16.60;99.90
25640;DHT22;13497;48.322;16.204;2022-09-14T05:09:07;16.50;99.90
25640;DHT22;13497;48.322;16.204;2022-09-14T05:11:35;16.60;99.90
25640;DHT22;13497;48.322;16.204;2022-09-14T05:14:02;16.60;99.90
25640;DHT22;13497;48.322;16.204;2022-09-14T05:16:42;16.70;99.90
25640;DHT22;13497;48.322;16.204;2022-09-14T05:19:14;16.80;99.90
25640;DHT22;13497;48.322;16.204;2022-09-14T05:21:41;16.80;99.90
25640;DHT22;13497;48.322;16.204;2022-09-14T05:24:15;16.90;99.90
25640;DHT22;13497;48.322;16.204;2022-09-14T05:26:41;16.90;99.90
25640;DHT22;13497;48.322;16.204;2022-09-14T05:29:11;17.00;99.90
25640;DHT22;13497;48.322;16.204;2022-09-14T05:31:39;17.00;99.90
25640;DHT22;13497;48.322;16.204;2022-09-14T05:34:04;17.00;99.90
25640;DHT22;13497;48.322;16.204;2022-09-14T05:36:30;17.00;99.90
25640;DHT22;13497;48.322;16.204;2022-09-14T05:38:56;17.10;99.90
25640;DHT22;13497;48.322;16.204;2022-09-14T05:41:25;17.10;99.90
25640;DHT22;13497;48.322;16.204;2022-09-14T05:43:51;17.20;99.90
25640;DHT22;13497;48.322;16.204;2022-09-14T05:46:17;17.30;99.90
25640;DHT22;13497;48.322;16.204;2022-09-14T05:48:47;17.30;99.90
25640;DHT22;13497;48.322;16.204;2022-09-14T05:51:18;17.30;99.90
25640;DHT22;13497;48.322;16.204;2022-09-14T05:53:54;17.40;99.90
25640;DHT22;13497;48.322;16.204;2022-09-14T05:56:21;17.30;99.90
25640;DHT22;13497;48.322;16.204;2022-09-14T05:58:47;17.30;99.90
25640;DHT22;13497;48.322;16.204;2022-09-14T06:01:16;17.30;99.90
25640;DHT22;13497;48.322;16.204;2022-09-14T06:03:43;17.30;99.90
25640;DHT22;13497;48.322;16.204;2022-09-14T06:06:11;17.30;99.90
25640;DHT22;13497;48.322;16.204;2022-09-14T06:08:37;17.30;99.90
25640;DHT22;13497;48.322;16.204;2022-09-14T06:11:08;17.40;99.90
25640;DHT22;13497;48.322;16.204;2022-09-14T06:13:34;17.40;99.90
25640;DHT22;13497;48.322;16.204;2022-09-14T06:16:19;17.50;99.90
25640;DHT22;13497;48.322;16.204;2022-09-14T06:18:46;17.40;99.90
25640;DHT22;13497;48.322;16.204;2022-09-14T06:21:14;17.40;99.90
25640;DHT22;13497;48.322;16.204;2022-09-14T06:23:41;17.40;99.90
25640;DHT22;13497;48.322;16.204;2022-09-14T06:26:08;17.50;99.90
25640;DHT22;13497;48.322;16.204;2022-09-14T06:28:34;17.50;99.90
25640;DHT22;13497;48.322;16.204;2022-09-14T06:31:01;17.50;99.90
25640;DHT22;13497;48.322;16.204;2022-09-14T06:33:29;17.50;99.90
25640;DHT22;13497;48.322;16.204;2022-09-14T06:36:00;17.60;99.90
25640;DHT22;13497;48.322;16.204;2022-09-14T06:38:27;17.60;99.90
25640;DHT22;13497;48.322;16.204;2022-09-14T06:40:53;17.60;99.90
25640;DHT22;13497;48.322;16.204;2022-09-14T06:43:25;17.70;99.90
25640;DHT22;13497;48.322;16.204;2022-09-14T06:45:57;17.70;99.90
25640;DHT22;13497;48.322;16.204;2022-09-14T06:48:22;17.70;99.90
25640;DHT22;13497;48.322;16.204;2022-09-14T06:50:48;17.70;99.90
25640;DHT22;13497;48.322;16.204;2022-09-14T06:53:14;17.70;99.90
25640;DHT22;13497;48.322;16.204;2022-09-14T06:55:39;17.80;99.90
25640;DHT22;13497;48.322;16.204;2022-09-14T06:58:15;17.80;99.90
25640;DHT22;13497;48.322;16.204;2022-09-14T07:00:41;17.90;99.90
25640;DHT22;13497;48.322;16.204;2022-09-14T07:03:07;17.90;99.90
25640;DHT22;13497;48.322;16.204;2022-09-14T07:05:32;17.90;99.90
25640;DHT22;13497;48.322;16.204;2022-09-14T07:07:58;17.90;99.90
25640;DHT22;13497;48.322;16.204;2022-09-14T07:10:24;17.80;99.90
25640;DHT22;13497;48.322;16.204;2022-09-14T07:12:53;17.80;99.90
25640;DHT22;13497;48.322;16.204;2022-09-14T07:15:20;17.80;99.90
25640;DHT22;13497;48.322;16.204;2022-09-14T07:17:46;17.80;99.90
25640;DHT22;13497;48.322;16.204;2022-09-14T07:20:11;17.80;99.90
25640;DHT22;13497;48.322;16.204;2022-09-14T07:22:39;17.80;99.90
25640;DHT22;13497;48.322;16.204;2022-09-14T07:25:06;17.80;99.90
25640;DHT22;13497;48.322;16.204;2022-09-14T07:27:32;17.90;99.90
25640;DHT22;13497;48.322;16.204;2022-09-14T07:29:57;17.80;99.90
25640;DHT22;13497;48.322;16.204;2022-09-14T07:32:23;18.00;99.90
25640;DHT22;13497;48.322;16.204;2022-09-14T07:34:49;18.10;99.90
25640;DHT22;13497;48.322;16.204;2022-09-14T07:37:14;18.30;99.90
25640;DHT22;13497;48.322;16.204;2022-09-14T07:39:40;18.60;99.90
25640;DHT22;13497;48.322;16.204;2022-09-14T07:42:06;19.00;99.90
25640;DHT22;13497;48.322;16.204;2022-09-14T07:44:31;19.30;99.90
25640;DHT22;13497;48.322;16.204;2022-09-14T07:46:57;19.50;99.90
25640;DHT22;13497;48.322;16.204;2022-09-14T07:49:22;19.60;99.90
25640;DHT22;13497;48.322;16.204;2022-09-14T07:51:48;19.60;99.90
25640;DHT22;13497;48.322;16.204;2022-09-14T07:54:16;19.60;99.90
25640;DHT22;13497;48.322;16.204;2022-09-14T07:56:42;19.80;99.90
25640;DHT22;13497;48.322;16.204;2022-09-14T07:59:14;19.70;99.90
25640;DHT22;13497;48.322;16.204;2022-09-14T08:01:41;19.80;99.90
25640;DHT22;13497;48.322;16.204;2022-09-14T08:04:07;19.70;99.90
25640;DHT22;13497;48.322;16.204;2022-09-14T08:06:34;19.70;99.90
25640;DHT22;13497;48.322;16.204;2022-09-14T08:09:03;19.60;99.90
25640;DHT22;13497;48.322;16.204;2022-09-14T08:11:30;19.40;99.90
25640;DHT22;13497;48.322;16.204;2022-09-14T08:14:00;19.50;99.90
25640;DHT22;13497;48.322;16.204;2022-09-14T08:16:28;19.40;99.90
25640;DHT22;13497;48.322;16.204;2022-09-14T08:18:55;19.60;99.90
25640;DHT22;13497;48.322;16.204;2022-09-14T08:21:26;19.70;99.90
25640;DHT22;13497;48.322;16.204;2022-09-14T08:23:53;19.90;99.90
25640;DHT22;13497;48.322;16.204;2022-09-14T08:26:21;20.00;99.90
25640;DHT22;13497;48.322;16.204;2022-09-14T08:28:48;20.00;99.90
25640;DHT22;13497;48.322;16.204;2022-09-14T08:31:20;20.20;99.90
25640;DHT22;13497;48.322;16.204;2022-09-14T08:33:49;20.30;99.90
25640;DHT22;13497;48.322;16.204;2022-09-14T08:36:16;20.30;99.90
25640;DHT22;13497;48.322;16.204;2022-09-14T08:38:43;20.30;99.90
25640;DHT22;13497;48.322;16.204;2022-09-14T08:43:53;20.30;99.90
25640;DHT22;13497;48.322;16.204;2022-09-14T08:46:26;20.10;99.90
25640;DHT22;13497;48.322;16.204;2022-09-14T08:48:52;20.30;99.90
25640;DHT22;13497;48.322;16.204;2022-09-14T08:51:18;20.60;99.90
25640;DHT22;13497;48.322;16.204;2022-09-14T08:53:44;20.70;99.90
25640;DHT22;13497;48.322;16.204;2022-09-14T08:56:32;20.80;99.90
25640;DHT22;13497;48.322;16.204;2022-09-14T09:02:02;21.10;99.90
25640;DHT22;13497;48.322;16.204;2022-09-14T09:04:47;21.20;99.90
25640;DHT22;13497;48.322;16.204;2022-09-14T09:07:40;21.20;99.90
25640;DHT22;13497;48.322;16.204;2022-09-14T09:10:09;21.20;99.90
25640;DHT22;13497;48.322;16.204;2022-09-14T09:12:39;21.00;99.90
25640;DHT22;13497;48.322;16.204;2022-09-14T09:15:27;20.90;99.90
25640;DHT22;13497;48.322;16.204;2022-09-14T09:18:02;21.00;99.90
25640;DHT22;13497;48.322;16.204;2022-09-14T09:20:32;21.30;99.90
25640;DHT22;13497;48.322;16.204;2022-09-14T09:23:12;21.50;99.90
25640;DHT22;13497;48.322;16.204;2022-09-14T09:28:12;21.70;99.90
25640;DHT22;13497;48.322;16.204;2022-09-14T09:30:38;21.90;99.90
25640;DHT22;13497;48.322;16.204;2022-09-14T09:33:14;22.10;99.90
25640;DHT22;13497;48.322;16.204;2022-09-14T09:35:41;22.00;99.90
25640;DHT22;13497;48.322;16.204;2022-09-14T09:38:13;22.10;99.90
25640;DHT22;13497;48.322;16.204;2022-09-14T09:40:43;22.10;99.90
25640;DHT22;13497;48.322;16.204;2022-09-14T09:43:16;22.00;99.90
25640;DHT22;13497;48.322;16.204;2022-09-14T09:48:22;21.80;99.90
25640;DHT22;13497;48.322;16.204;2022-09-14T09:53:47;21.60;99.90
25640;DHT22;13497;48.322;16.204;2022-09-14T09:56:20;21.70;99.90
25640;DHT22;13497;48.322;16.204;2022-09-14T09:58:47;21.60;99.90
25640;DHT22;13497;48.322;16.204;2022-09-14T10:01:25;21.50;99.90
25640;DHT22;13497;48.322;16.204;2022-09-14T10:06:29;21.20;99.90
25640;DHT22;13497;48.322;16.204;2022-09-14T10:08:55;21.00;99.90
25640;DHT22;13497;48.322;16.204;2022-09-14T10:11:33;20.90;99.90
25640;DHT22;13497;48.322;16.204;2022-09-14T10:14:02;20.80;99.90
25640;DHT22;13497;48.322;16.204;2022-09-14T10:16:38;20.60;99.90
25640;DHT22;13497;48.322;16.204;2022-09-14T10:19:21;20.50;99.90
25640;DHT22;13497;48.322;16.204;2022-09-14T10:22:04;20.40;99.90
25640;DHT22;13497;48.322;16.204;2022-09-14T10:24:36;20.40;99.90
25640;DHT22;13497;48.322;16.204;2022-09-14T10:30:02;20.60;99.90
25640;DHT22;13497;48.322;16.204;2022-09-14T10:32:30;20.70;99.90
25640;DHT22;13497;48.322;16.204;2022-09-14T10:34:57;20.60;99.90
25640;DHT22;13497;48.322;16.204;2022-09-14T10:37:37;20.60;99.90
25640;DHT22;13497;48.322;16.204;2022-09-14T10:45:34;20.40;99.90
25640;DHT22;13497;48.322;16.204;2022-09-14T10:59:50;20.50;99.90
25640;DHT22;13497;48.322;16.204;2022-09-14T11:02:21;20.60;99.90
25640;DHT22;13497;48.322;16.204;2022-09-14T11:05:10;20.80;99.90
25640;DHT22;13497;48.322;16.204;2022-09-14T11:08:26;20.90;99.90
25640;DHT22;13497;48.322;16.204;2022-09-14T11:13:24;21.20;99.90
25640;DHT22;13497;48.322;16.204;2022-09-14T11:23:50;22.30;99.90
25640;DHT22;13497;48.322;16.204;2022-09-14T11:26:35;22.50;99.90
25640;DHT22;13497;48.322;16.204;2022-09-14T11:31:54;22.90;99.90
25640;DHT22;13497;48.322;16.204;2022-09-14T11:34:56;23.00;99.90
25640;DHT22;13497;48.322;16.204;2022-09-14T11:37:46;23.10;99.90
25640;DHT22;13497;48.322;16.204;2022-09-14T11:40:36;23.30;99.90
25640;DHT22;13497;48.322;16.204;2022-09-14T11:43:12;23.40;99.90
25640;DHT22;13497;48.322;16.204;2022-09-14T11:45:44;23.60;99.90
25640;DHT22;13497;48.322;16.204;2022-09-14T11:50:41;23.80;99.90
25640;DHT22;13497;48.322;16.204;2022-09-14T11:53:12;23.90;99.90
25640;DHT22;13497;48.322;16.204;2022-09-14T11:55:47;23.90;99.90
25640;DHT22;13497;48.322;16.204;2022-09-14T11:58:25;23.90;99.90
25640;DHT22;13497;48.322;16.204;2022-09-14T12:11:55;23.80;99.90
25640;DHT22;13497;48.322;16.204;2022-09-14T12:19:45;25.00;99.90
25640;DHT22;13497;48.322;16.204;2022-09-14T12:22:31;24.90;99.90
25640;DHT22;13497;48.322;16.204;2022-09-14T12:27:35;24.70;99.90
25640;DHT22;13497;48.322;16.204;2022-09-14T12:30:01;24.80;99.90
25640;DHT22;13497;48.322;16.204;2022-09-14T12:32:42;24.80;99.90
25640;DHT22;13497;48.322;16.204;2022-09-14T12:38:17;25.20;99.90
25640;DHT22;13497;48.322;16.204;2022-09-14T12:40:45;25.40;99.90
25640;DHT22;13497;48.322;16.204;2022-09-14T13:06:49;25.80;99.90
25640;DHT22;13497;48.322;16.204;2022-09-14T13:09:23;26.00;99.90
25640;DHT22;13497;48.322;16.204;2022-09-14T13:12:02;26.10;99.70
25640;DHT22;13497;48.322;16.204;2022-09-14T13:14:47;26.10;99.90
25640;DHT22;13497;48.322;16.204;2022-09-14T13:17:14;26.20;99.90
25640;DHT22;13497;48.322;16.204;2022-09-14T13:19:43;26.20;99.40
25640;DHT22;13497;48.322;16.204;2022-09-14T13:22:23;26.10;99.30
25640;DHT22;13497;48.322;16.204;2022-09-14T13:24:49;26.10;99.50
25640;DHT22;13497;48.322;16.204;2022-09-14T13:29:47;26.40;99.10
25640;DHT22;13497;48.322;16.204;2022-09-14T13:32:21;26.40;99.10
25640;DHT22;13497;48.322;16.204;2022-09-14T13:34:47;26.40;98.90
25640;DHT22;13497;48.322;16.204;2022-09-14T13:37:13;26.50;99.10
25640;DHT22;13497;48.322;16.204;2022-09-14T13:39:39;26.50;99.00
25640;DHT22;13497;48.322;16.204;2022-09-14T13:42:07;26.40;99.30
25640;DHT22;13497;48.322;16.204;2022-09-14T13:44:40;26.20;99.50
25640;DHT22;13497;48.322;16.204;2022-09-14T13:47:12;26.10;99.30
25640;DHT22;13497;48.322;16.204;2022-09-14T13:49:40;26.00;99.70
25640;DHT22;13497;48.322;16.204;2022-09-14T13:55:07;26.00;99.90
25640;DHT22;13497;48.322;16.204;2022-09-14T13:57:34;26.00;99.90
25640;DHT22;13497;48.322;16.204;2022-09-14T14:02:47;26.10;99.90
25640;DHT22;13497;48.322;16.204;2022-09-14T14:05:31;26.10;99.90
25640;DHT22;13497;48.322;16.204;2022-09-14T14:08:00;26.10;99.90
25640;DHT22;13497;48.322;16.204;2022-09-14T14:10:30;26.10;99.90
25640;DHT22;13497;48.322;16.204;2022-09-14T14:12:59;26.10;99.90
25640;DHT22;13497;48.322;16.204;2022-09-14T14:17:51;26.10;99.90
25640;DHT22;13497;48.322;16.204;2022-09-14T14:25:39;26.40;99.80
25640;DHT22;13497;48.322;16.204;2022-09-14T14:28:34;26.30;99.60
25640;DHT22;13497;48.322;16.204;2022-09-14T14:31:00;26.30;99.80
25640;DHT22;13497;48.322;16.204;2022-09-14T14:33:35;26.30;99.90
25640;DHT22;13497;48.322;16.204;2022-09-14T14:36:02;26.30;99.90
25640;DHT22;13497;48.322;16.204;2022-09-14T14:38:34;26.30;99.90
25640;DHT22;13497;48.322;16.204;2022-09-14T14:40:59;26.30;99.90
25640;DHT22;13497;48.322;16.204;2022-09-14T14:43:25;26.40;99.90
25640;DHT22;13497;48.322;16.204;2022-09-14T14:46:01;26.50;99.90
25640;DHT22;13497;48.322;16.204;2022-09-14T14:48:28;26.40;99.80
25640;DHT22;13497;48.322;16.204;2022-09-14T14:50:54;26.30;99.80
25640;DHT22;13497;48.322;16.204;2022-09-14T14:53:23;26.30;99.90
25640;DHT22;13497;48.322;16.204;2022-09-14T14:55:49;26.20;99.90
25640;DHT22;13497;48.322;16.204;2022-09-14T14:58:17;26.10;99.90
25640;DHT22;13497;48.322;16.204;2022-09-14T15:00:43;26.10;99.90
25640;DHT22;13497;48.322;16.204;2022-09-14T15:03:09;25.90;99.90
25640;DHT22;13497;48.322;16.204;2022-09-14T15:05:39;25.70;99.90
25640;DHT22;13497;48.322;16.204;2022-09-14T15:08:05;25.70;99.90
25640;DHT22;13497;48.322;16.204;2022-09-14T15:10:31;25.70;99.90
25640;DHT22;13497;48.322;16.204;2022-09-14T15:12:59;25.80;99.90
25640;DHT22;13497;48.322;16.204;2022-09-14T15:15:25;25.90;99.90
25640;DHT22;13497;48.322;16.204;2022-09-14T15:17:51;26.00;99.90
25640;DHT22;13497;48.322;16.204;2022-09-14T15:20:19;26.00;99.90
25640;DHT22;13497;48.322;16.204;2022-09-14T15:22:46;26.00;99.90
25640;DHT22;13497;48.322;16.204;2022-09-14T15:25:12;26.00;99.90
25640;DHT22;13497;48.322;16.204;2022-09-14T15:27:38;26.00;99.90
25640;DHT22;13497;48.322;16.204;2022-09-14T15:30:05;26.00;99.90
25640;DHT22;13497;48.322;16.204;2022-09-14T15:32:32;25.90;99.90
25640;DHT22;13497;48.322;16.204;2022-09-14T15:35:00;26.00;99.90
25640;DHT22;13497;48.322;16.204;2022-09-14T15:37:27;25.90;99.90
25640;DHT22;13497;48.322;16.204;2022-09-14T15:39:53;25.80;99.90
25640;DHT22;13497;48.322;16.204;2022-09-14T15:42:18;25.80;99.90
25640;DHT22;13497;48.322;16.204;2022-09-14T15:44:45;25.80;99.90
25640;DHT22;13497;48.322;16.204;2022-09-14T15:47:11;25.70;99.90
25640;DHT22;13497;48.322;16.204;2022-09-14T15:49:39;25.70;99.90
25640;DHT22;13497;48.322;16.204;2022-09-14T15:52:09;25.60;99.90
25640;DHT22;13497;48.322;16.204;2022-09-14T15:54:36;25.60;99.90
25640;DHT22;13497;48.322;16.204;2022-09-14T15:57:04;25.50;99.90
25640;DHT22;13497;48.322;16.204;2022-09-14T15:59:33;25.40;99.90
25640;DHT22;13497;48.322;16.204;2022-09-14T16:02:06;25.30;99.90
25640;DHT22;13497;48.322;16.204;2022-09-14T16:04:37;25.00;99.90
25640;DHT22;13497;48.322;16.204;2022-09-14T16:07:04;24.80;99.90
25640;DHT22;13497;48.322;16.204;2022-09-14T16:09:37;24.50;99.90
25640;DHT22;13497;48.322;16.204;2022-09-14T16:12:10;24.30;99.90
25640;DHT22;13497;48.322;16.204;2022-09-14T16:14:36;24.10;99.90
25640;DHT22;13497;48.322;16.204;2022-09-14T16:17:06;23.90;99.90
25640;DHT22;13497;48.322;16.204;2022-09-14T16:19:36;23.70;99.90
25640;DHT22;13497;48.322;16.204;2022-09-14T16:22:05;23.50;99.90
25640;DHT22;13497;48.322;16.204;2022-09-14T16:24:31;23.40;99.90
25640;DHT22;13497;48.322;16.204;2022-09-14T16:27:00;23.30;99.90
25640;DHT22;13497;48.322;16.204;2022-09-14T16:29:26;23.30;99.90
25640;DHT22;13497;48.322;16.204;2022-09-14T16:31:52;23.20;99.90
25640;DHT22;13497;48.322;16.204;2022-09-14T16:34:21;23.10;99.90
25640;DHT22;13497;48.322;16.204;2022-09-14T16:36:48;23.00;99.90
25640;DHT22;13497;48.322;16.204;2022-09-14T16:39:17;23.00;99.90
25640;DHT22;13497;48.322;16.204;2022-09-14T16:41:47;22.90;99.90
25640;DHT22;13497;48.322;16.204;2022-09-14T16:44:27;22.90;99.90
25640;DHT22;13497;48.322;16.204;2022-09-14T16:46:55;22.90;99.90
25640;DHT22;13497;48.322;16.204;2022-09-14T16:49:22;23.00;99.90
25640;DHT22;13497;48.322;16.204;2022-09-14T16:51:48;23.00;99.90
25640;DHT22;13497;48.322;16.204;2022-09-14T16:54:22;23.00;99.90
25640;DHT22;13497;48.322;16.204;2022-09-14T16:56:50;23.00;99.90
25640;DHT22;13497;48.322;16.204;2022-09-14T16:59:18;23.00;99.90
25640;DHT22;13497;48.322;16.204;2022-09-14T17:01:47;22.90;99.90
25640;DHT22;13497;48.322;16.204;2022-09-14T17:04:15;22.80;99.90
25640;DHT22;13497;48.322;16.204;2022-09-14T17:06:44;22.80;99.90
25640;DHT22;13497;48.322;16.204;2022-09-14T17:09:19;22.80;99.90
25640;DHT22;13497;48.322;16.204;2022-09-14T17:11:45;22.70;99.90
25640;DHT22;13497;48.322;16.204;2022-09-14T17:14:12;22.60;99.90
25640;DHT22;13497;48.322;16.204;2022-09-14T17:16:38;22.50;99.90
25640;DHT22;13497;48.322;16.204;2022-09-14T17:19:05;22.30;99.90
25640;DHT22;13497;48.322;16.204;2022-09-14T17:21:35;22.10;99.90
25640;DHT22;13497;48.322;16.204;2022-09-14T17:24:02;21.90;99.90
25640;DHT22;13497;48.322;16.204;2022-09-14T17:26:31;21.70;99.90
25640;DHT22;13497;48.322;16.204;2022-09-14T17:29:01;21.60;99.90
25640;DHT22;13497;48.322;16.204;2022-09-14T17:31:34;21.60;99.90
25640;DHT22;13497;48.322;16.204;2022-09-14T17:34:07;21.50;99.90
25640;DHT22;13497;48.322;16.204;2022-09-14T17:36:33;21.50;99.90
25640;DHT22;13497;48.322;16.204;2022-09-14T17:39:03;21.50;99.90
25640;DHT22;13497;48.322;16.204;2022-09-14T17:41:30;21.40;99.90
25640;DHT22;13497;48.322;16.204;2022-09-14T17:44:01;21.40;99.90
25640;DHT22;13497;48.322;16.204;2022-09-14T17:46:30;21.30;99.90
25640;DHT22;13497;48.322;16.204;2022-09-14T17:49:00;21.30;99.90
25640;DHT22;13497;48.322;16.204;2022-09-14T17:51:32;21.20;99.90
25640;DHT22;13497;48.322;16.204;2022-09-14T17:54:03;21.20;99.90
25640;DHT22;13497;48.322;16.204;2022-09-14T17:56:31;21.20;99.90